Time;durP1;ratioP1;P1;durP2;ratioP2;P2;SDS_P1;SDS_P2;PMS_P1;PMS_P2;Temp;Humidity;BMP_temperature;BMP_pressure;BME280_temperature;BME280_humidity;BME280_pressure;Samples;Min_cycle;Max_cycle;Signal;HPM_P1;HPM_P2
2022/01/12 00:00:32;;;;;;;17.67;9.83;;;;;;;;;;5160345;27;20444;-75
2022/01/12 00:03:00;;;;;;;15.47;9.63;;;;;;;;;;5130000;27;20449;-74
2022/01/12 00:05:28;;;;;;;16.83;9.60;;;;;;;;;;5141059;27;20555;-75
2022/01/12 00:07:56;;;;;;;15.13;9.37;;;;;;;;;;5141627;27;20480;-75
2022/01/12 00:10:25;;;;;;;13.60;9.27;;;;;;;;;;5140845;27;20936;-75
2022/01/12 00:12:54;;;;;;;17.03;9.43;;;;;;;;;;5128458;27;20452;-74
2022/01/12 00:15:22;;;;;;;15.60;8.90;;;;;;;;;;5141211;27;20795;-75
2022/01/12 00:17:50;;;;;;;15.60;9.60;;;;;;;;;;5141213;27;20464;-76
2022/01/12 00:20:18;;;;;;;16.57;9.97;;;;;;;;;;5141538;27;20451;-76
2022/01/12 00:22:46;;;;;;;13.00;9.13;;;;;;;;;;5141370;27;20524;-75
2022/01/12 00:25:27;;;;;;;16.77;9.57;;;;;;;;;;5141216;27;20788;-75
2022/01/12 00:33:27;;;;;;;14.50;9.90;;;;;;;;;;5141167;27;20533;-75
2022/01/12 00:35:56;;;;;;;14.47;10.03;;;;;;;;;;5141268;27;20992;-75
2022/01/12 00:38:25;;;;;;;15.20;9.13;;;;;;;;;;5130389;27;20453;-75
2022/01/12 00:40:54;;;;;;;13.87;9.23;;;;;;;;;;5142726;27;20802;-75
2022/01/12 00:43:29;;;;;;;12.77;9.43;;;;;;;;;;5140267;27;20451;-76
2022/01/12 00:45:57;;;;;;;14.63;9.63;;;;;;;;;;5139252;27;20457;-75
2022/01/12 00:48:25;;;;;;;14.40;9.53;;;;;;;;;;5138924;27;20487;-75
2022/01/12 00:50:53;;;;;;;15.77;10.00;;;;;;;;;;5140675;27;20796;-75
2022/01/12 00:53:21;;;;;;;15.60;9.87;;;;;;;;;;5140616;27;20450;-75
2022/01/12 00:55:49;;;;;;;16.13;10.57;;;;;;;;;;5146983;27;20520;-76
2022/01/12 00:58:17;;;;;;;16.67;9.63;;;;;;;;;;5142204;27;20456;-75
2022/01/12 01:00:46;;;;;;;16.97;9.50;;;;;;;;;;5141396;27;20446;-75
2022/01/12 01:03:16;;;;;;;18.87;10.27;;;;;;;;;;5149734;27;20455;-75
2022/01/12 01:05:44;;;;;;;16.37;10.23;;;;;;;;;;5143811;27;20784;-75
2022/01/12 01:08:12;;;;;;;13.90;10.07;;;;;;;;;;5140708;27;20844;-75
2022/01/12 01:10:46;;;;;;;15.10;9.93;;;;;;;;;;5140800;27;20445;-75
2022/01/12 01:13:15;;;;;;;13.93;10.10;;;;;;;;;;5149917;27;20455;-74
2022/01/12 01:16:00;;;;;;;15.07;9.30;;;;;;;;;;5144350;27;20928;-75
2022/01/12 01:26:47;;;;;;;15.30;9.87;;;;;;;;;;5128638;27;21174;-75
2022/01/12 01:29:15;;;;;;;15.00;10.27;;;;;;;;;;5140619;27;20513;-75
2022/01/12 01:31:44;;;;;;;17.60;10.03;;;;;;;;;;5140564;27;20800;-75
2022/01/12 01:34:15;;;;;;;16.30;9.63;;;;;;;;;;5138816;27;20457;-75
2022/01/12 01:36:44;;;;;;;18.03;10.03;;;;;;;;;;5128565;27;20465;-75
2022/01/12 01:39:13;;;;;;;16.73;10.40;;;;;;;;;;5140282;27;20817;-75
2022/01/12 01:41:44;;;;;;;17.63;10.53;;;;;;;;;;5148754;27;20441;-75
2022/01/12 01:55:22;;;;;;;13.80;10.00;;;;;;;;;;5139255;27;20450;-74
2022/01/12 01:57:50;;;;;;;14.40;9.07;;;;;;;;;;5139939;27;20466;-74
2022/01/12 02:00:20;;;;;;;16.40;9.80;;;;;;;;;;5148266;27;20456;-74
2022/01/12 02:02:48;;;;;;;15.27;9.87;;;;;;;;;;5145265;27;20441;-75
2022/01/12 02:05:18;;;;;;;15.73;10.40;;;;;;;;;;5146542;27;20886;-74
2022/01/12 02:07:46;;;;;;;17.47;10.07;;;;;;;;;;5144425;27;20466;-75
2022/01/12 02:10:14;;;;;;;13.63;9.87;;;;;;;;;;5140119;27;20972;-74
2022/01/12 02:12:43;;;;;;;18.10;10.53;;;;;;;;;;5133981;27;20462;-74
2022/01/12 02:15:15;;;;;;;15.73;11.20;;;;;;;;;;5129267;27;20478;-74
2022/01/12 02:17:57;;;;;;;16.73;9.77;;;;;;;;;;5139484;27;20468;-75
2022/01/12 02:35:12;;;;;;;17.30;10.23;;;;;;;;;;5144269;27;20453;-74
2022/01/12 02:39:47;;;;;;;14.40;10.13;;;;;;;;;;5152757;27;20456;-75
2022/01/12 02:40:09;;;;;;;15.50;10.10;;;;;;;;;;5138596;27;20438;-75
2022/01/12 02:42:42;;;;;;;14.57;9.80;;;;;;;;;;5138947;27;20446;-74
2022/01/12 02:50:46;;;;;;;16.20;9.77;;;;;;;;;;5109067;27;20445;-75
2022/01/12 02:56:01;;;;;;;14.90;9.93;;;;;;;;;;5136475;27;20476;-75
2022/01/12 02:58:29;;;;;;;14.73;10.00;;;;;;;;;;5137500;27;20437;-75
2022/01/12 03:03:42;;;;;;;18.47;9.53;;;;;;;;;;5138890;27;20469;-75
2022/01/12 03:06:14;;;;;;;13.50;9.20;;;;;;;;;;5142828;27;20461;-75
2022/01/12 03:08:42;;;;;;;15.13;9.10;;;;;;;;;;5146991;27;20850;-74
2022/01/12 03:11:13;;;;;;;14.27;9.17;;;;;;;;;;5138467;27;20456;-74
2022/01/12 03:13:41;;;;;;;13.67;8.40;;;;;;;;;;5138853;27;20464;-75
2022/01/12 03:16:13;;;;;;;15.97;9.47;;;;;;;;;;5142561;27;20475;-74
2022/01/12 03:18:42;;;;;;;14.13;9.40;;;;;;;;;;5146805;27;20449;-75
2022/01/12 03:21:11;;;;;;;14.83;9.20;;;;;;;;;;5138367;27;20497;-75
2022/01/12 03:23:39;;;;;;;13.27;9.23;;;;;;;;;;5138834;28;20450;-75
2022/01/12 03:26:08;;;;;;;13.07;8.90;;;;;;;;;;5141585;27;20475;-75
2022/01/12 03:28:39;;;;;;;13.13;9.13;;;;;;;;;;5150989;27;20528;-75
2022/01/12 03:31:10;;;;;;;15.47;9.80;;;;;;;;;;5143076;27;20449;-75
2022/01/12 03:33:52;;;;;;;16.73;9.73;;;;;;;;;;5142834;27;20920;-75
2022/01/12 03:36:41;;;;;;;14.73;8.83;;;;;;;;;;5135056;27;20548;-75
2022/01/12 03:39:10;;;;;;;12.87;9.23;;;;;;;;;;5147420;27;20438;-75
2022/01/12 03:41:39;;;;;;;14.80;10.10;;;;;;;;;;5143168;27;20897;-75
2022/01/12 03:44:09;;;;;;;14.70;9.67;;;;;;;;;;5142443;27;20516;-75
2022/01/12 03:46:40;;;;;;;16.67;9.83;;;;;;;;;;5150701;27;20468;-75
2022/01/12 03:49:08;;;;;;;16.13;8.70;;;;;;;;;;5146718;27;20537;-75
2022/01/12 03:51:36;;;;;;;14.23;9.20;;;;;;;;;;5142451;27;20445;-75
2022/01/12 03:54:04;;;;;;;14.90;9.50;;;;;;;;;;5142183;27;20828;-75
2022/01/12 03:56:32;;;;;;;16.43;8.90;;;;;;;;;;5141491;27;20470;-75
2022/01/12 03:59:00;;;;;;;16.77;9.53;;;;;;;;;;5142140;27;20456;-75
2022/01/12 04:01:29;;;;;;;17.33;10.30;;;;;;;;;;5142234;27;20963;-75
2022/01/12 04:04:02;;;;;;;13.07;8.77;;;;;;;;;;5142341;27;20450;-75
2022/01/12 04:09:36;;;;;;;17.70;9.40;;;;;;;;;;5142190;27;20830;-75
2022/01/12 04:12:04;;;;;;;15.13;9.97;;;;;;;;;;5141975;27;20450;-75
2022/01/12 04:14:32;;;;;;;15.80;9.80;;;;;;;;;;5142854;27;20454;-75
2022/01/12 04:17:02;;;;;;;15.97;10.10;;;;;;;;;;5155469;27;20465;-75
2022/01/12 04:19:30;;;;;;;17.77;10.80;;;;;;;;;;5141768;27;20507;-75
2022/01/12 04:22:07;;;;;;;17.63;10.83;;;;;;;;;;5154399;27;20448;-75
2022/01/12 04:24:35;;;;;;;15.80;10.17;;;;;;;;;;5141453;27;20425;-75
2022/01/12 04:27:03;;;;;;;16.97;10.43;;;;;;;;;;5141846;27;20464;-75
2022/01/12 04:29:31;;;;;;;14.60;9.47;;;;;;;;;;5141633;27;20481;-75
2022/01/12 04:31:59;;;;;;;18.50;10.07;;;;;;;;;;5155217;27;20447;-75
2022/01/12 04:34:28;;;;;;;15.43;10.20;;;;;;;;;;5141795;27;20442;-75
2022/01/12 04:36:56;;;;;;;12.30;8.33;;;;;;;;;;5153879;27;20460;-75
2022/01/12 04:39:24;;;;;;;14.70;9.43;;;;;;;;;;5141205;27;20452;-75
2022/01/12 04:41:52;;;;;;;13.90;9.40;;;;;;;;;;5155211;27;20981;-75
2022/01/12 04:44:20;;;;;;;14.37;8.93;;;;;;;;;;5141367;27;20532;-76
2022/01/12 04:46:52;;;;;;;12.70;8.70;;;;;;;;;;5141087;27;20472;-75
2022/01/12 04:49:36;;;;;;;12.77;7.67;;;;;;;;;;5140991;27;20472;-75
2022/01/12 04:52:06;;;;;;;12.77;8.43;;;;;;;;;;5155031;27;20455;-75
2022/01/12 04:54:35;;;;;;;12.10;8.73;;;;;;;;;;5141016;27;20473;-75
2022/01/12 04:57:03;;;;;;;15.40;9.37;;;;;;;;;;5143032;27;20461;-75
2022/01/12 04:59:34;;;;;;;13.73;8.27;;;;;;;;;;5162074;27;20449;-75
2022/01/12 05:06:19;;;;;;;15.90;10.13;;;;;;;;;;5146705;27;20446;-75
2022/01/12 05:07:45;;;;;;;14.13;8.60;;;;;;;;;;5140929;27;20479;-75
2022/01/12 05:13:01;;;;;;;13.27;8.73;;;;;;;;;;5129028;27;20834;-75
2022/01/12 05:15:32;;;;;;;14.27;10.10;;;;;;;;;;5140974;27;20529;-75
2022/01/12 05:18:00;;;;;;;11.53;9.80;;;;;;;;;;5129312;27;20446;-75
2022/01/12 05:20:29;;;;;;;13.87;9.70;;;;;;;;;;5140566;27;20446;-75
2022/01/12 05:22:58;;;;;;;16.47;9.90;;;;;;;;;;5153945;27;20452;-75
2022/01/12 05:25:26;;;;;;;12.87;9.77;;;;;;;;;;5140340;27;20450;-75
2022/01/12 05:27:54;;;;;;;14.17;9.03;;;;;;;;;;5152579;27;20466;-75
2022/01/12 05:30:22;;;;;;;12.87;9.27;;;;;;;;;;5140487;27;20482;-74
2022/01/12 05:32:50;;;;;;;15.10;10.37;;;;;;;;;;5153990;27;20456;-74
2022/01/12 05:35:20;;;;;;;14.40;9.57;;;;;;;;;;5140413;27;20446;-75
2022/01/12 05:37:48;;;;;;;13.03;9.27;;;;;;;;;;5152290;27;20517;-74
2022/01/12 05:40:20;;;;;;;16.07;9.23;;;;;;;;;;5138230;27;20445;-68
2022/01/12 05:42:50;;;;;;;13.10;9.10;;;;;;;;;;5137308;27;20448;-74
2022/01/12 05:45:23;;;;;;;15.00;10.07;;;;;;;;;;5139433;27;20443;-74
2022/01/12 05:50:37;;;;;;;16.43;10.10;;;;;;;;;;5138280;27;20488;-76
2022/01/12 05:53:05;;;;;;;13.57;9.63;;;;;;;;;;5142057;27;20448;-76
2022/01/12 05:55:34;;;;;;;17.23;10.30;;;;;;;;;;5139908;27;20434;-75
2022/01/12 05:58:02;;;;;;;15.97;9.37;;;;;;;;;;5140571;27;20452;-75
2022/01/12 06:00:30;;;;;;;14.30;9.47;;;;;;;;;;5142023;27;20440;-75
2022/01/12 06:02:58;;;;;;;16.07;9.80;;;;;;;;;;5140608;27;20520;-75
2022/01/12 06:05:28;;;;;;;15.20;9.60;;;;;;;;;;5141084;27;20924;-75
2022/01/12 06:07:56;;;;;;;16.70;10.17;;;;;;;;;;5143275;27;20989;-75
2022/01/12 06:10:24;;;;;;;13.37;9.40;;;;;;;;;;5141557;27;20469;-75
2022/01/12 06:12:53;;;;;;;13.50;8.80;;;;;;;;;;5142502;27;20807;-76
2022/01/12 06:15:21;;;;;;;13.60;9.03;;;;;;;;;;5135229;27;20453;-74
2022/01/12 06:17:49;;;;;;;17.13;10.23;;;;;;;;;;5127905;27;20466;-75
2022/01/12 06:20:17;;;;;;;16.33;8.13;;;;;;;;;;5135895;27;20802;-75
2022/01/12 06:22:45;;;;;;;15.60;9.67;;;;;;;;;;5136542;27;20447;-75
2022/01/12 06:25:15;;;;;;;12.67;9.40;;;;;;;;;;5138947;27;20445;-74
2022/01/12 06:27:50;;;;;;;16.37;9.07;;;;;;;;;;5138625;27;20468;-74
2022/01/12 06:33:06;;;;;;;13.37;8.67;;;;;;;;;;5138819;27;20446;-75
2022/01/12 06:35:34;;;;;;;14.97;9.77;;;;;;;;;;5138675;27;20446;-75
2022/01/12 06:38:02;;;;;;;13.70;9.37;;;;;;;;;;5139327;27;20438;-75
2022/01/12 06:40:30;;;;;;;12.10;8.33;;;;;;;;;;5138079;27;20450;-75
2022/01/12 06:42:57;;;;;;;16.33;9.17;;;;;;;;;;5139219;27;20804;-74
2022/01/12 06:45:27;;;;;;;13.63;9.00;;;;;;;;;;5137703;27;20448;-75
2022/01/12 06:47:55;;;;;;;13.27;9.30;;;;;;;;;;5123787;27;20470;-72
2022/01/12 06:50:23;;;;;;;11.73;9.27;;;;;;;;;;5132242;27;20438;-75
2022/01/12 06:52:51;;;;;;;13.13;8.70;;;;;;;;;;5136712;27;20460;-76
2022/01/12 06:55:19;;;;;;;15.67;9.60;;;;;;;;;;5133275;27;20558;-72
2022/01/12 06:57:47;;;;;;;14.53;8.53;;;;;;;;;;5120338;27;20489;-71
2022/01/12 07:00:15;;;;;;;15.93;9.70;;;;;;;;;;5117043;27;20485;-74
2022/01/12 07:02:45;;;;;;;11.50;8.37;;;;;;;;;;5119609;27;21113;-74
2022/01/12 07:05:13;;;;;;;13.63;9.57;;;;;;;;;;5123221;27;20438;-74
2022/01/12 07:07:42;;;;;;;14.50;8.23;;;;;;;;;;5117785;27;20471;-74
2022/01/12 07:10:10;;;;;;;12.57;9.17;;;;;;;;;;5127763;27;20470;-74
2022/01/12 07:12:38;;;;;;;15.93;9.40;;;;;;;;;;5133652;27;20509;-74
2022/01/12 07:15:07;;;;;;;15.47;9.83;;;;;;;;;;5131210;27;20445;-74
2022/01/12 07:17:35;;;;;;;16.07;9.10;;;;;;;;;;5128880;27;20561;-74
2022/01/12 07:20:06;;;;;;;17.60;8.73;;;;;;;;;;5127899;27;20454;-74
2022/01/12 07:22:34;;;;;;;11.87;8.67;;;;;;;;;;5137372;28;20452;-74
2022/01/12 07:25:02;;;;;;;13.80;10.07;;;;;;;;;;5129350;28;20485;-75
2022/01/12 07:27:30;;;;;;;16.00;9.37;;;;;;;;;;5133370;28;20477;-75
2022/01/12 07:29:58;;;;;;;12.33;8.43;;;;;;;;;;5138257;28;20446;-74
2022/01/12 07:32:26;;;;;;;19.17;10.37;;;;;;;;;;5137568;28;20840;-76
2022/01/12 07:34:53;;;;;;;14.70;8.83;;;;;;;;;;5130866;28;20936;-74
2022/01/12 07:37:23;;;;;;;13.53;8.27;;;;;;;;;;5132468;28;20462;-75
2022/01/12 07:39:51;;;;;;;15.90;9.70;;;;;;;;;;5132276;28;20453;-74
2022/01/12 07:42:22;;;;;;;15.90;8.83;;;;;;;;;;5152289;27;20807;-74
2022/01/12 07:44:57;;;;;;;13.23;8.80;;;;;;;;;;5151191;27;20471;-73
2022/01/12 07:47:26;;;;;;;13.83;8.90;;;;;;;;;;5137733;28;20465;-73
2022/01/12 07:49:54;;;;;;;10.73;7.93;;;;;;;;;;5138008;28;20475;-73
2022/01/12 07:52:24;;;;;;;12.70;9.00;;;;;;;;;;5137738;28;20546;-73
2022/01/12 07:54:58;;;;;;;12.13;8.17;;;;;;;;;;5131125;28;20474;-73
2022/01/12 07:57:26;;;;;;;11.17;7.67;;;;;;;;;;5137916;28;20463;-73
2022/01/12 07:59:54;;;;;;;15.37;8.83;;;;;;;;;;5137650;28;20446;-73
2022/01/12 08:02:22;;;;;;;14.37;8.87;;;;;;;;;;5140369;27;20521;-70
2022/01/12 08:04:50;;;;;;;11.97;8.47;;;;;;;;;;5131419;28;20969;-73
2022/01/12 08:07:18;;;;;;;13.30;8.47;;;;;;;;;;5137366;28;20491;-72
2022/01/12 08:09:48;;;;;;;16.73;8.37;;;;;;;;;;5140935;27;20442;-72
2022/01/12 08:12:16;;;;;;;12.43;8.50;;;;;;;;;;5137495;28;20480;-72
2022/01/12 08:14:44;;;;;;;11.47;8.60;;;;;;;;;;5140572;27;20513;-72
2022/01/12 08:17:12;;;;;;;13.17;8.83;;;;;;;;;;5141838;27;20476;-72
2022/01/12 08:19:41;;;;;;;15.07;9.17;;;;;;;;;;5141215;27;20446;-72
2022/01/12 08:22:10;;;;;;;12.60;8.50;;;;;;;;;;5141264;27;20472;-72
2022/01/12 08:24:38;;;;;;;12.93;8.80;;;;;;;;;;5140942;27;20441;-72
2022/01/12 08:27:08;;;;;;;13.13;8.83;;;;;;;;;;5141459;27;20465;-72
2022/01/12 08:29:36;;;;;;;13.47;8.20;;;;;;;;;;5141273;27;20956;-72
2022/01/12 08:32:05;;;;;;;11.30;8.93;;;;;;;;;;5141021;27;20481;-72
2022/01/12 08:34:34;;;;;;;12.77;8.50;;;;;;;;;;5141015;27;20454;-72
2022/01/12 08:37:02;;;;;;;14.50;8.43;;;;;;;;;;5141111;27;20549;-72
2022/01/12 08:39:31;;;;;;;13.17;8.00;;;;;;;;;;5140739;27;20878;-72
2022/01/12 08:41:59;;;;;;;11.87;8.07;;;;;;;;;;5147392;27;20437;-72
2022/01/12 08:44:36;;;;;;;13.13;8.63;;;;;;;;;;5161737;27;20930;-72
2022/01/12 08:47:05;;;;;;;16.23;9.30;;;;;;;;;;5161810;27;20505;-72
2022/01/12 08:49:33;;;;;;;14.60;8.33;;;;;;;;;;5161266;27;20529;-72
2022/01/12 08:52:01;;;;;;;11.83;7.90;;;;;;;;;;5151455;27;20482;-73
2022/01/12 08:54:29;;;;;;;14.10;9.87;;;;;;;;;;5140897;27;20437;-73
2022/01/12 08:56:57;;;;;;;18.60;10.07;;;;;;;;;;5141006;27;20464;-72
2022/01/12 08:59:25;;;;;;;16.03;10.37;;;;;;;;;;5154127;27;20433;-73
2022/01/12 09:01:54;;;;;;;12.60;9.23;;;;;;;;;;5151335;27;20443;-73
2022/01/12 09:04:23;;;;;;;15.50;9.83;;;;;;;;;;5140226;27;20804;-74
2022/01/12 09:06:51;;;;;;;18.77;9.77;;;;;;;;;;5140923;27;20501;-73
2022/01/12 09:09:19;;;;;;;12.87;9.10;;;;;;;;;;5140301;27;20545;-72
2022/01/12 09:11:47;;;;;;;16.07;9.57;;;;;;;;;;5128479;27;20452;-73
2022/01/12 09:14:16;;;;;;;17.37;9.70;;;;;;;;;;5140632;27;20448;-72
2022/01/12 09:16:44;;;;;;;16.70;10.03;;;;;;;;;;5140361;27;20542;-73
2022/01/12 09:19:13;;;;;;;16.13;10.03;;;;;;;;;;5140161;27;20948;-73
2022/01/12 09:21:41;;;;;;;12.33;9.20;;;;;;;;;;5140774;27;20522;-72
2022/01/12 09:24:09;;;;;;;10.73;8.37;;;;;;;;;;5140113;27;20525;-73
2022/01/12 09:26:37;;;;;;;11.50;7.93;;;;;;;;;;5139328;27;20549;-72
2022/01/12 09:29:05;;;;;;;12.63;8.50;;;;;;;;;;5140547;27;20448;-73
2022/01/12 09:31:33;;;;;;;13.47;8.97;;;;;;;;;;5140186;27;20456;-72
2022/01/12 09:34:01;;;;;;;12.43;8.07;;;;;;;;;;5140216;27;20486;-73
2022/01/12 09:36:31;;;;;;;13.40;8.23;;;;;;;;;;5139933;27;20472;-72
2022/01/12 09:39:00;;;;;;;12.60;8.57;;;;;;;;;;5140175;27;20452;-72
2022/01/12 09:41:28;;;;;;;12.67;8.17;;;;;;;;;;5142310;27;20429;-72
2022/01/12 09:43:57;;;;;;;12.23;8.67;;;;;;;;;;5147953;27;20437;-72
2022/01/12 09:46:27;;;;;;;13.80;8.93;;;;;;;;;;5148055;27;20826;-72
2022/01/12 09:48:55;;;;;;;13.60;8.37;;;;;;;;;;5148202;27;20476;-72
2022/01/12 09:51:24;;;;;;;14.57;9.90;;;;;;;;;;5148317;27;20440;-72
2022/01/12 09:53:53;;;;;;;12.27;8.67;;;;;;;;;;5148101;27;20477;-71
2022/01/12 09:56:24;;;;;;;11.70;7.90;;;;;;;;;;5148068;27;20486;-72
2022/01/12 09:58:54;;;;;;;15.20;9.43;;;;;;;;;;5145932;27;20787;-72
2022/01/12 10:01:27;;;;;;;12.70;8.03;;;;;;;;;;5142727;27;20479;-72
2022/01/12 10:04:05;;;;;;;12.70;8.83;;;;;;;;;;5146003;27;20430;-73
2022/01/12 10:06:35;;;;;;;13.37;9.37;;;;;;;;;;5144361;27;20466;-72
2022/01/12 10:09:05;;;;;;;14.57;8.33;;;;;;;;;;5145331;27;20474;-73
2022/01/12 10:11:33;;;;;;;15.53;9.60;;;;;;;;;;5147670;27;21061;-72
2022/01/12 10:14:02;;;;;;;11.53;8.47;;;;;;;;;;5142007;27;20482;-72
2022/01/12 10:16:31;;;;;;;10.50;8.07;;;;;;;;;;5139001;27;21052;-72
2022/01/12 10:19:00;;;;;;;11.63;7.50;;;;;;;;;;5139428;27;20445;-72
2022/01/12 10:21:30;;;;;;;11.97;8.00;;;;;;;;;;5131158;27;20475;-72
2022/01/12 10:23:59;;;;;;;13.97;8.83;;;;;;;;;;5131159;27;20468;-72
2022/01/12 10:26:33;;;;;;;13.70;9.13;;;;;;;;;;5138790;27;20994;-72
2022/01/12 10:29:08;;;;;;;14.17;8.53;;;;;;;;;;5139427;27;20448;-73
2022/01/12 10:31:43;;;;;;;10.67;7.90;;;;;;;;;;5137526;27;20527;-72
2022/01/12 10:34:16;;;;;;;11.03;8.23;;;;;;;;;;5136866;27;20980;-72
2022/01/12 10:36:45;;;;;;;13.77;6.97;;;;;;;;;;5142271;27;20503;-72
2022/01/12 10:39:14;;;;;;;11.83;8.33;;;;;;;;;;5142641;27;20469;-72
2022/01/12 10:41:53;;;;;;;13.97;9.30;;;;;;;;;;5147681;27;20500;-72
2022/01/12 10:44:22;;;;;;;13.37;9.60;;;;;;;;;;5146752;27;20469;-72
2022/01/12 10:46:50;;;;;;;14.97;8.53;;;;;;;;;;5149508;27;20828;-72
2022/01/12 10:49:20;;;;;;;15.47;9.63;;;;;;;;;;5138581;27;20469;-72
2022/01/12 10:51:56;;;;;;;15.53;9.20;;;;;;;;;;5137090;27;21002;-72
2022/01/12 10:54:24;;;;;;;14.70;9.00;;;;;;;;;;5136180;27;20528;-73
2022/01/12 10:56:54;;;;;;;12.87;9.00;;;;;;;;;;5141809;27;20816;-73
2022/01/12 10:59:22;;;;;;;15.53;9.70;;;;;;;;;;5147902;27;20451;-73
2022/01/12 11:01:50;;;;;;;15.93;9.17;;;;;;;;;;5144971;27;20936;-73
2022/01/12 11:04:20;;;;;;;11.90;8.17;;;;;;;;;;5136425;27;20465;-74
2022/01/12 11:06:48;;;;;;;11.40;7.53;;;;;;;;;;5137018;27;20466;-75
2022/01/12 11:09:17;;;;;;;14.50;9.20;;;;;;;;;;5138190;27;20507;-71
2022/01/12 11:11:45;;;;;;;13.43;8.33;;;;;;;;;;5138442;27;20921;-74
2022/01/12 11:14:14;;;;;;;12.30;8.20;;;;;;;;;;5138240;27;20481;-73
2022/01/12 11:16:44;;;;;;;13.43;7.87;;;;;;;;;;5138341;27;20457;-73
2022/01/12 11:19:13;;;;;;;10.97;7.53;;;;;;;;;;5138330;28;20450;-73
2022/01/12 11:21:43;;;;;;;11.57;7.70;;;;;;;;;;5146303;27;20439;-72
2022/01/12 11:24:12;;;;;;;12.37;8.37;;;;;;;;;;5145925;27;20437;-72
2022/01/12 11:26:47;;;;;;;13.50;8.10;;;;;;;;;;5140827;27;20462;-71
2022/01/12 11:29:26;;;;;;;16.50;9.83;;;;;;;;;;5138336;28;20442;-73
2022/01/12 11:32:04;;;;;;;14.87;8.73;;;;;;;;;;5138418;28;20448;-72
2022/01/12 11:34:32;;;;;;;13.33;8.17;;;;;;;;;;5137922;28;20492;-72
2022/01/12 11:37:10;;;;;;;14.83;9.00;;;;;;;;;;5137784;28;21002;-70
2022/01/12 11:39:38;;;;;;;11.30;7.77;;;;;;;;;;5137881;28;20448;-71
2022/01/12 11:42:07;;;;;;;11.27;9.00;;;;;;;;;;5154521;27;20443;-72
2022/01/12 11:44:38;;;;;;;11.90;7.97;;;;;;;;;;5158730;27;20445;-73
2022/01/12 11:47:12;;;;;;;17.10;9.37;;;;;;;;;;5158820;27;20465;-74
2022/01/12 11:49:42;;;;;;;13.77;9.03;;;;;;;;;;5161897;27;20877;-73
2022/01/12 11:52:14;;;;;;;11.07;7.03;;;;;;;;;;5153355;27;20444;-74
2022/01/12 11:54:45;;;;;;;12.10;8.10;;;;;;;;;;5141844;27;20477;-74
2022/01/12 11:57:18;;;;;;;11.90;8.93;;;;;;;;;;5148029;27;20460;-74
2022/01/12 11:59:52;;;;;;;12.60;8.70;;;;;;;;;;5150286;27;20447;-74
2022/01/12 12:02:21;;;;;;;13.03;8.83;;;;;;;;;;5150209;27;20437;-74
2022/01/12 12:04:56;;;;;;;11.97;8.37;;;;;;;;;;5149358;27;20461;-74
2022/01/12 12:07:25;;;;;;;11.20;7.73;;;;;;;;;;5145949;27;20457;-74
2022/01/12 12:09:57;;;;;;;11.90;8.40;;;;;;;;;;5141672;27;20529;-74
2022/01/12 12:12:28;;;;;;;13.17;8.13;;;;;;;;;;5145646;27;20439;-74
2022/01/12 12:14:58;;;;;;;11.67;8.47;;;;;;;;;;5148469;27;20470;-74
2022/01/12 12:17:27;;;;;;;13.80;8.93;;;;;;;;;;5132952;27;20808;-74
2022/01/12 12:19:56;;;;;;;12.63;7.83;;;;;;;;;;5130856;27;20458;-74
2022/01/12 12:22:25;;;;;;;12.30;9.20;;;;;;;;;;5129885;27;20435;-74
2022/01/12 12:24:54;;;;;;;13.97;8.57;;;;;;;;;;5131270;27;20426;-74
2022/01/12 12:27:23;;;;;;;12.87;8.63;;;;;;;;;;5130126;27;20455;-74
2022/01/12 12:29:52;;;;;;;9.73;8.03;;;;;;;;;;5139566;27;20523;-73
2022/01/12 12:32:32;;;;;;;11.70;8.13;;;;;;;;;;5148886;27;20429;-74
2022/01/12 12:35:01;;;;;;;11.17;8.43;;;;;;;;;;5149676;27;20529;-74
2022/01/12 12:37:36;;;;;;;17.40;8.83;;;;;;;;;;5146810;27;20450;-73
2022/01/12 12:40:15;;;;;;;12.13;8.53;;;;;;;;;;5147565;27;20438;-73
2022/01/12 12:42:43;;;;;;;13.33;8.83;;;;;;;;;;5149402;27;20441;-73
2022/01/12 12:45:12;;;;;;;13.10;8.30;;;;;;;;;;5149472;27;20831;-73
2022/01/12 12:47:43;;;;;;;13.47;9.33;;;;;;;;;;5140501;27;20529;-74
2022/01/12 12:50:14;;;;;;;14.13;8.47;;;;;;;;;;5141326;27;20481;-73
2022/01/12 12:52:43;;;;;;;12.27;8.20;;;;;;;;;;5132563;27;20449;-73
2022/01/12 12:55:13;;;;;;;12.97;8.73;;;;;;;;;;5145979;27;20526;-73
2022/01/12 12:57:51;;;;;;;12.20;8.27;;;;;;;;;;5135950;27;20982;-73
2022/01/12 13:00:20;;;;;;;12.97;8.47;;;;;;;;;;5129071;27;20448;-74
2022/01/12 13:02:51;;;;;;;15.43;9.20;;;;;;;;;;5130979;27;20456;-73
2022/01/12 13:05:20;;;;;;;14.20;8.80;;;;;;;;;;5132686;27;20515;-73
2022/01/12 13:07:49;;;;;;;13.63;9.43;;;;;;;;;;5131266;27;20464;-74
2022/01/12 13:10:18;;;;;;;13.57;9.33;;;;;;;;;;5141331;27;20474;-74
2022/01/12 13:12:47;;;;;;;11.80;8.60;;;;;;;;;;5149384;27;20433;-74
2022/01/12 13:15:20;;;;;;;14.80;8.37;;;;;;;;;;5145583;27;21010;-73
2022/01/12 13:17:48;;;;;;;12.17;8.53;;;;;;;;;;5145939;27;20544;-73
2022/01/12 13:23:07;;;;;;;13.10;8.17;;;;;;;;;;5140657;27;20477;-73
2022/01/12 13:25:36;;;;;;;12.83;8.20;;;;;;;;;;5139767;27;20438;-74
2022/01/12 13:28:05;;;;;;;12.43;8.90;;;;;;;;;;5138719;27;20517;-74
2022/01/12 13:30:34;;;;;;;14.07;9.63;;;;;;;;;;5132941;27;20438;-74
2022/01/12 13:33:03;;;;;;;16.83;9.40;;;;;;;;;;5130547;27;20439;-74
2022/01/12 13:35:35;;;;;;;13.03;9.77;;;;;;;;;;5129796;27;20564;-74
2022/01/12 13:38:04;;;;;;;16.80;8.90;;;;;;;;;;5129235;27;20434;-73
2022/01/12 13:40:42;;;;;;;14.57;8.67;;;;;;;;;;5129435;27;20470;-74
2022/01/12 13:43:11;;;;;;;14.00;9.20;;;;;;;;;;5132449;27;20505;-74
2022/01/12 13:45:43;;;;;;;15.03;8.23;;;;;;;;;;5127363;27;20837;-74
2022/01/12 13:48:14;;;;;;;16.03;8.73;;;;;;;;;;5125581;27;21016;-74
2022/01/12 13:50:45;;;;;;;12.63;8.73;;;;;;;;;;5130880;27;20796;-67
2022/01/12 13:53:13;;;;;;;13.80;8.80;;;;;;;;;;5134190;27;20442;-74
2022/01/12 13:55:49;;;;;;;12.47;8.27;;;;;;;;;;5139174;27;20492;-73
2022/01/12 13:58:17;;;;;;;16.30;8.83;;;;;;;;;;5139507;27;20867;-73
2022/01/12 14:00:45;;;;;;;16.80;9.03;;;;;;;;;;5150706;27;20910;-72
2022/01/12 14:03:14;;;;;;;16.07;8.93;;;;;;;;;;5129360;27;20438;-73
2022/01/12 14:05:45;;;;;;;14.87;9.03;;;;;;;;;;5139478;27;20437;-73
2022/01/12 14:08:15;;;;;;;14.00;8.67;;;;;;;;;;5139671;27;20444;-73
2022/01/12 14:10:44;;;;;;;15.10;9.33;;;;;;;;;;5138965;27;20474;-72
2022/01/12 14:13:12;;;;;;;12.73;8.50;;;;;;;;;;5139362;27;20502;-72
2022/01/12 14:15:41;;;;;;;13.43;8.90;;;;;;;;;;5139441;27;20492;-72
2022/01/12 14:18:17;;;;;;;12.23;8.23;;;;;;;;;;5138909;27;20438;-72
2022/01/12 14:20:47;;;;;;;13.00;8.83;;;;;;;;;;5139353;27;20437;-72
2022/01/12 14:23:17;;;;;;;11.77;9.10;;;;;;;;;;5131625;27;20462;-72
2022/01/12 14:25:48;;;;;;;14.30;9.00;;;;;;;;;;5129589;27;20465;-73
2022/01/12 14:28:17;;;;;;;12.87;8.70;;;;;;;;;;5122791;27;20455;-72
2022/01/12 14:30:46;;;;;;;12.23;9.00;;;;;;;;;;5126030;27;20431;-72
2022/01/12 14:33:14;;;;;;;14.47;8.53;;;;;;;;;;5128923;27;20526;-73
2022/01/12 14:35:42;;;;;;;13.90;8.63;;;;;;;;;;5129130;27;20469;-73
2022/01/12 14:38:11;;;;;;;15.20;8.90;;;;;;;;;;5129220;27;20525;-74
2022/01/12 14:40:41;;;;;;;11.77;8.77;;;;;;;;;;5128747;27;20918;-74
2022/01/12 14:43:11;;;;;;;13.50;8.77;;;;;;;;;;5128168;27;20445;-75
2022/01/12 14:45:41;;;;;;;11.90;8.77;;;;;;;;;;5130670;27;20422;-75
2022/01/12 14:48:10;;;;;;;13.73;8.97;;;;;;;;;;5129239;27;20590;-75
2022/01/12 14:50:38;;;;;;;15.10;9.43;;;;;;;;;;5130529;27;20925;-75
2022/01/12 14:53:07;;;;;;;13.93;8.63;;;;;;;;;;5138564;27;20524;-75
2022/01/12 14:55:50;;;;;;;12.77;8.93;;;;;;;;;;5140188;27;20469;-75
2022/01/12 14:58:19;;;;;;;12.23;9.37;;;;;;;;;;5127979;27;20483;-76
2022/01/12 15:00:47;;;;;;;15.40;8.90;;;;;;;;;;5133347;27;20458;-75
2022/01/12 15:03:16;;;;;;;15.27;9.73;;;;;;;;;;5127871;27;20438;-75
2022/01/12 15:05:44;;;;;;;12.20;9.33;;;;;;;;;;5127447;27;20445;-75
2022/01/12 15:08:13;;;;;;;14.83;9.50;;;;;;;;;;5126003;27;20923;-71
2022/01/12 15:10:42;;;;;;;16.67;9.97;;;;;;;;;;5137835;27;20967;-76
2022/01/12 15:13:17;;;;;;;14.27;9.07;;;;;;;;;;5138356;27;20445;-74
2022/01/12 15:15:46;;;;;;;13.93;9.27;;;;;;;;;;5138254;27;20487;-75
2022/01/12 15:18:14;;;;;;;14.57;8.87;;;;;;;;;;5138241;27;20445;-75
2022/01/12 15:20:43;;;;;;;13.70;9.40;;;;;;;;;;5138148;28;20446;-75
2022/01/12 15:23:11;;;;;;;17.37;9.63;;;;;;;;;;5137289;27;20450;-75
2022/01/12 15:25:39;;;;;;;13.77;9.40;;;;;;;;;;5138224;28;20510;-75
2022/01/12 15:28:07;;;;;;;16.17;9.50;;;;;;;;;;5138232;28;20438;-75
2022/01/12 15:30:37;;;;;;;15.07;10.20;;;;;;;;;;5138632;28;20450;-75
2022/01/12 15:33:05;;;;;;;13.90;8.33;;;;;;;;;;5138339;28;20446;-74
2022/01/12 15:35:35;;;;;;;15.73;10.47;;;;;;;;;;5138088;28;20478;-74
2022/01/12 15:38:04;;;;;;;15.23;8.97;;;;;;;;;;5137925;28;22067;-74
2022/01/12 15:40:32;;;;;;;14.83;9.10;;;;;;;;;;5137734;28;20625;-74
2022/01/12 15:43:00;;;;;;;13.67;9.67;;;;;;;;;;5138044;28;20536;-74
2022/01/12 15:45:28;;;;;;;13.00;9.23;;;;;;;;;;5138327;28;20438;-74
2022/01/12 15:47:57;;;;;;;15.30;9.50;;;;;;;;;;5137781;28;20478;-74
2022/01/12 15:50:25;;;;;;;16.20;10.93;;;;;;;;;;5138050;28;20437;-74